»·PEaware :: UAL465 KLAS-KSNA

UAL465 :: KLAS-KSNA

FLIGHT INFORMATION

Flight Status: Arrived
Operator:
United Airlines
More flights by this operator :: More flights under this callsign
Pilot: Matt G. (13672)
Aircraft: AIRBUS A320
(A320)
More flights by this aircraft type
Origin: KLAS McCarran Intl
United States
Destination: KSNA John Wayne-Orange Co
United States
More flights between these airports :: More routes between these airports
Route: +BOACH8 WHIGG FEYLA DSNEE1
File this flight plan on PilotEdge
Remarks: Will request ILS 20R
Altitude:
(Current/Filed)
28,000ft
Speed:
(Current/Filed)
431kts
Departed: 25-Nov-17 08:49 AM
Arrived: 25-Nov-17 09:34 AM
Distance/Time
Traveled:
196nm/0:45
Distance/Time
To Go:
Arrived

Flight Plot

Page will automatically refresh every two minutes.

Flight plan parsing failed; only flown route is shown


Map Options




Map Legend


Flown Route
Filed Route
Departure Airport
Arrival Airport
Navaid (VOR, NDB)
Fix

Horizontal Profiles

Position Reports

Time Latitude Longitude Heading Altitude Ground
Speed
25-Nov-17 08:30 36.082195 -115.140003 41 2120ft 0kts
25-Nov-17 08:31 36.082195 -115.140003 41 2120ft 0kts
25-Nov-17 08:32 36.082195 -115.140003 41 2120ft 0kts
25-Nov-17 08:33 36.082195 -115.140003 41 2120ft 0kts
25-Nov-17 08:34 36.082195 -115.140003 41 2120ft 0kts
25-Nov-17 08:35 36.082195 -115.140003 41 2120ft 0kts
25-Nov-17 08:36 36.082195 -115.140003 41 2120ft 0kts
25-Nov-17 08:37 36.082195 -115.140003 41 2120ft 0kts
25-Nov-17 08:38 36.082195 -115.140003 41 2120ft 0kts
25-Nov-17 08:39 36.082195 -115.140003 41 2120ft 0kts
25-Nov-17 08:40 36.082195 -115.140003 41 2120ft 0kts
25-Nov-17 08:41 36.082179 -115.140021 41 2120ft 2kts
25-Nov-17 08:42 36.081728 -115.140508 46 2120ft 2kts
25-Nov-17 08:43 36.081632 -115.141205 114 2120ft 2kts
25-Nov-17 08:44 36.082101 -115.141603 179 2120ft 2kts
25-Nov-17 08:45 36.082419 -115.141597 180 2120ft 0kts
25-Nov-17 08:46 36.082419 -115.141597 180 2120ft 0kts
25-Nov-17 08:47 36.082419 -115.141597 180 2120ft 0kts
25-Nov-17 08:48 36.082419 -115.141597 180 2120ft 0kts
25-Nov-17 08:49 36.082401 -115.141597 180 2120ft 2kts
25-Nov-17 08:50 36.078279 -115.139267 91 2120ft 28kts
25-Nov-17 08:51 36.078277 -115.129158 89 2120ft 30kts
25-Nov-17 08:52 36.077570 -115.121635 129 2120ft 0kts
25-Nov-17 08:53 36.077505 -115.121544 133 2120ft 4kts
25-Nov-17 08:54 36.076394 -115.136945 269 2131ft 156kts
25-Nov-17 08:55 36.076376 -115.197381 272 5061ft 189kts
25-Nov-17 08:56 36.053943 -115.264114 205 7209ft 272kts
25-Nov-17 08:57 35.984710 -115.296168 201 7221ft 268kts
25-Nov-17 08:58 35.910467 -115.309028 187 8742ft 279kts
25-Nov-17 08:59 35.839343 -115.313308 177 11292ft 313kts
25-Nov-17 09:00 35.745165 -115.302104 177 13704ft 347kts
25-Nov-17 09:01 35.660587 -115.318808 229 17719ft 301kts
25-Nov-17 09:02 35.602457 -115.397054 229 19260ft 347kts
25-Nov-17 09:03 35.532523 -115.490965 229 19253ft 398kts
25-Nov-17 09:04 35.458044 -115.591013 229 19253ft 398kts
25-Nov-17 09:05 35.385715 -115.688326 229 21033ft 381kts
25-Nov-17 09:06 35.318386 -115.778643 229 24398ft 350kts
25-Nov-17 09:07 35.256230 -115.861866 230 27549ft 320kts
25-Nov-17 09:08 35.193250 -115.944140 228 28272ft 362kts
25-Nov-17 09:09 35.118903 -116.037782 228 28261ft 413kts
25-Nov-17 09:10 35.036217 -116.141681 227 28253ft 444kts
25-Nov-17 09:11 34.953613 -116.245131 227 28262ft 450kts
25-Nov-17 09:12 34.869315 -116.350630 227 28238ft 456kts
25-Nov-17 09:13 34.792531 -116.448657 227 28057ft 460kts
25-Nov-17 09:14 34.707351 -116.556795 227 26174ft 410kts
25-Nov-17 09:15 34.636872 -116.629892 220 24914ft 395kts
25-Nov-17 09:16 34.554802 -116.710195 219 22901ft 385kts
25-Nov-17 09:17 34.475591 -116.792835 224 20859ft 376kts
25-Nov-17 09:18 34.401493 -116.878847 224 18823ft 366kts
25-Nov-17 09:19 34.329874 -116.961753 224 16802ft 358kts
25-Nov-17 09:20 34.258288 -117.039871 212 14865ft 348kts
25-Nov-17 09:21 34.177716 -117.097846 209 13220ft 333kts
25-Nov-17 09:22 34.095573 -117.143096 204 12650ft 329kts
25-Nov-17 09:23 34.013079 -117.187299 204 12174ft 328kts
25-Nov-17 09:24 33.949065 -117.262518 230 10447ft 317kts
25-Nov-17 09:25 33.897512 -117.335102 230 9431ft 281kts
25-Nov-17 09:26 33.848569 -117.404340 230 8312ft 267kts
25-Nov-17 09:27 33.810132 -117.472447 250 7546ft 247kts
25-Nov-17 09:28 33.796752 -117.550124 272 6710ft 230kts
25-Nov-17 09:29 33.799173 -117.624809 273 6054ft 212kts
25-Nov-17 09:30 33.807159 -117.686958 282 5488ft 176kts
25-Nov-17 09:31 33.816746 -117.743003 282 4301ft 171kts
25-Nov-17 09:32 33.831129 -117.795611 329 4013ft 172kts
25-Nov-17 09:33 33.871041 -117.774126 70 4015ft 172kts
25-Nov-17 09:34 33.841106 -117.757407 220 4017ft 171kts
25-Nov-17 09:35 33.802408 -117.788642 207 3201ft 160kts
25-Nov-17 09:36 33.765870 -117.811726 207 1933ft 141kts
25-Nov-17 09:37 33.731493 -117.833500 207 1172ft 139kts
25-Nov-17 09:38 33.697460 -117.855055 207 431ft 138kts
25-Nov-17 09:39 33.669918 -117.872149 167 55ft 18kts
25-Nov-17 09:40 33.669230 -117.871687 130 55ft 0kts
25-Nov-17 09:41 33.669259 -117.870827 46 55ft 11kts
25-Nov-17 09:42 33.674316 -117.866358 28 55ft 26kts
25-Nov-17 09:43 33.678363 -117.863169 114 55ft 3kts
25-Nov-17 09:44 33.678309 -117.863026 114 55ft 0kts

Navigation Log

Ident Type
Flight plan parsing failed, navigation log unavailable